Airfield :
LOGIN :

Register | Disclaimer

   EN    FR    IT 

 










Legend :    VFR   Marginal VFR   IFR   Intensive IFR   Very Intensive IFR
Visi :
Ceiling :
>= 8 km
>= 3000ft
5 to 8 km
1000 to 3000 ft
1500m to 5 km
500 to 1000 ft
800 to 1500m
200 to 500 ft
< 800m
< 200 ft
Symbols :   Thunderstorms  Fog  Heavy snow  Heavy precipitations  Wind > 20 kt
SIGMETs :     Misc.  Thunderstorms  Icing  Turbulence  Mountain Waves  Volcanic Ashes







- Airport Elevation : 70 ft
- IATA code : LEI


LEAM - Almeria

CURRENT METAR :
  • 231130Z 08018KT CAVOK 34/09 Q1016

EXPIRED METARs :
  • 231100Z 08018KT 060V120 CAVOK 33/09 Q1016
  • 231030Z 09016KT CAVOK 33/09 Q1016
  • 231000Z 07015KT 040V110 CAVOK 33/11 Q1016
  • 230930Z 07013KT 050V110 CAVOK 32/11 Q1016
  • 230900Z 08012KT 050V110 CAVOK 32/12 Q1016
  • 230830Z 09011KT 060V130 CAVOK 31/11 Q1016

TAF TAF LEAM
Valid from the 23 at 09:00 until the 24 at 09:00 UTC


230800Z 2309/2409 07006KT CAVOK TX35/2314Z TN22/2405Z
BECMG 2309/2311 07016KT
TEMPO 2311/2320 07018G28KT
BECMG 2320/2323 36009KT
BECMG 2407/2409 07016KT
No reported NOTAMs for that airfield.



MET'MAP, your aeronautical weather chart ! - Copyright ORBIFLY December 2007 - Disclaimer

ORBIFLY MET'MAP TEAM :

Programming & Development : Alexandra Zaïnal
Concept & Development : Baudouin d'Aumeries
Co-Development & Prog : Marc-Olivier Méhu
Technical & hardware support : Manuel Goepfert

Contact : metmap@orbifly.com




SOURCES & CREDITS :

   NOAA